sensor_id;sensor_type;location;lat;lon;timestamp;pressure;altitude;pressure_sealevel;temperature;humidity
52591;BME280;38483;42.620;25.394;2024-01-11T00:00:33;97988.03;;;-2.26;66.18
52591;BME280;38483;42.620;25.394;2024-01-11T00:03:00;97989.53;;;-2.36;65.50
52591;BME280;38483;42.620;25.394;2024-01-11T00:05:27;97999.00;;;-2.29;65.93
52591;BME280;38483;42.620;25.394;2024-01-11T00:07:55;97999.69;;;-2.36;66.94
52591;BME280;38483;42.620;25.394;2024-01-11T00:10:22;98003.59;;;-2.52;67.27
52591;BME280;38483;42.620;25.394;2024-01-11T00:12:49;97990.63;;;-2.67;68.58
52591;BME280;38483;42.620;25.394;2024-01-11T00:15:17;98000.66;;;-2.70;69.33
52591;BME280;38483;42.620;25.394;2024-01-11T00:17:44;97991.16;;;-2.80;69.99
52591;BME280;38483;42.620;25.394;2024-01-11T00:20:12;97990.09;;;-2.91;70.33
52591;BME280;38483;42.620;25.394;2024-01-11T00:22:39;97981.38;;;-3.03;70.87
52591;BME280;38483;42.620;25.394;2024-01-11T00:25:06;97990.63;;;-3.05;70.99
52591;BME280;38483;42.620;25.394;2024-01-11T00:27:34;97986.84;;;-3.22;70.76
52591;BME280;38483;42.620;25.394;2024-01-11T00:30:01;97983.94;;;-3.38;71.86
52591;BME280;38483;42.620;25.394;2024-01-11T00:32:31;97987.38;;;-3.36;72.60
52591;BME280;38483;42.620;25.394;2024-01-11T00:34:58;97922.47;;;-3.69;73.28
52591;BME280;38483;42.620;25.394;2024-01-11T00:37:25;97972.31;;;-3.30;73.31
52591;BME280;38483;42.620;25.394;2024-01-11T00:39:52;97983.53;;;-3.56;73.98
52591;BME280;38483;42.620;25.394;2024-01-11T00:42:19;97960.09;;;-3.47;73.70
52591;BME280;38483;42.620;25.394;2024-01-11T00:44:46;97978.72;;;-3.45;74.56
52591;BME280;38483;42.620;25.394;2024-01-11T00:47:13;97957.50;;;-3.50;74.66
52591;BME280;38483;42.620;25.394;2024-01-11T00:49:41;97950.75;;;-3.50;74.83
52591;BME280;38483;42.620;25.394;2024-01-11T00:52:08;97937.34;;;-3.46;75.17
52591;BME280;38483;42.620;25.394;2024-01-11T00:54:36;97950.03;;;-3.44;75.34
52591;BME280;38483;42.620;25.394;2024-01-11T00:57:03;97940.53;;;-3.54;75.37
52591;BME280;38483;42.620;25.394;2024-01-11T00:59:30;97949.00;;;-3.52;76.02
52591;BME280;38483;42.620;25.394;2024-01-11T01:01:58;97947.44;;;-3.49;74.97
52591;BME280;38483;42.620;25.394;2024-01-11T01:04:25;97949.66;;;-3.23;74.40
52591;BME280;38483;42.620;25.394;2024-01-11T01:06:52;97938.94;;;-3.13;73.51
52591;BME280;38483;42.620;25.394;2024-01-11T01:09:19;97945.19;;;-2.98;72.55
52591;BME280;38483;42.620;25.394;2024-01-11T01:11:46;97943.44;;;-3.00;70.95
52591;BME280;38483;42.620;25.394;2024-01-11T01:14:13;97936.78;;;-2.95;71.17
52591;BME280;38483;42.620;25.394;2024-01-11T01:16:40;97936.09;;;-2.88;70.46
52591;BME280;38483;42.620;25.394;2024-01-11T01:19:08;97933.25;;;-3.03;70.39
52591;BME280;38483;42.620;25.394;2024-01-11T01:21:35;97929.16;;;-2.97;70.17
52591;BME280;38483;42.620;25.394;2024-01-11T01:24:02;97926.53;;;-3.01;69.92
52591;BME280;38483;42.620;25.394;2024-01-11T01:26:30;97928.94;;;-3.07;70.69
52591;BME280;38483;42.620;25.394;2024-01-11T01:28:57;97925.91;;;-2.90;70.94
52591;BME280;38483;42.620;25.394;2024-01-11T01:31:24;97926.38;;;-2.67;69.96
52591;BME280;38483;42.620;25.394;2024-01-11T01:33:51;97922.53;;;-2.47;70.23
52591;BME280;38483;42.620;25.394;2024-01-11T01:36:18;97915.09;;;-2.39;68.99
52591;BME280;38483;42.620;25.394;2024-01-11T01:38:45;97912.75;;;-2.29;68.58
52591;BME280;38483;42.620;25.394;2024-01-11T01:41:12;97905.94;;;-2.31;69.02
52591;BME280;38483;42.620;25.394;2024-01-11T01:43:39;97911.22;;;-2.21;68.35
52591;BME280;38483;42.620;25.394;2024-01-11T01:46:06;97904.28;;;-2.31;68.49
52591;BME280;38483;42.620;25.394;2024-01-11T01:48:34;97900.13;;;-2.24;68.05
52591;BME280;38483;42.620;25.394;2024-01-11T01:51:02;97888.69;;;-2.49;68.06
52591;BME280;38483;42.620;25.394;2024-01-11T01:53:30;97898.25;;;-2.36;67.85
52591;BME280;38483;42.620;25.394;2024-01-11T01:55:57;97866.31;;;-2.71;68.84
52591;BME280;38483;42.620;25.394;2024-01-11T01:58:24;97886.59;;;-2.71;69.39
52591;BME280;38483;42.620;25.394;2024-01-11T02:00:52;97885.41;;;-2.88;70.24
52591;BME280;38483;42.620;25.394;2024-01-11T02:03:19;97877.91;;;-2.82;70.59
52591;BME280;38483;42.620;25.394;2024-01-11T02:05:47;97874.03;;;-3.08;71.01
52591;BME280;38483;42.620;25.394;2024-01-11T02:08:16;97863.38;;;-3.34;71.36
52591;BME280;38483;42.620;25.394;2024-01-11T02:10:44;97866.09;;;-3.25;71.43
52591;BME280;38483;42.620;25.394;2024-01-11T02:13:13;97869.25;;;-3.34;72.13
52591;BME280;38483;42.620;25.394;2024-01-11T02:15:40;97864.03;;;-3.43;70.50
52591;BME280;38483;42.620;25.394;2024-01-11T02:18:08;97860.25;;;-3.60;71.73
52591;BME280;38483;42.620;25.394;2024-01-11T02:20:35;97854.00;;;-3.38;71.72
52591;BME280;38483;42.620;25.394;2024-01-11T02:23:06;97856.69;;;-3.31;70.99
52591;BME280;38483;42.620;25.394;2024-01-11T02:25:35;97831.25;;;-3.35;70.83
52591;BME280;38483;42.620;25.394;2024-01-11T02:28:02;97860.16;;;-3.25;71.00
52591;BME280;38483;42.620;25.394;2024-01-11T02:30:29;97848.66;;;-3.11;70.12
52591;BME280;38483;42.620;25.394;2024-01-11T02:32:56;97852.06;;;-3.09;69.00
52591;BME280;38483;42.620;25.394;2024-01-11T02:35:24;97832.28;;;-3.27;69.10
52591;BME280;38483;42.620;25.394;2024-01-11T02:37:53;97842.44;;;-3.25;69.45
52591;BME280;38483;42.620;25.394;2024-01-11T02:40:21;97848.44;;;-3.22;69.12
52591;BME280;38483;42.620;25.394;2024-01-11T02:42:49;97855.94;;;-3.25;69.01
52591;BME280;38483;42.620;25.394;2024-01-11T02:45:16;97856.69;;;-3.31;69.04
52591;BME280;38483;42.620;25.394;2024-01-11T02:47:43;97840.63;;;-3.33;69.73
52591;BME280;38483;42.620;25.394;2024-01-11T02:50:10;97841.69;;;-3.21;69.48
52591;BME280;38483;42.620;25.394;2024-01-11T02:52:39;97840.06;;;-3.19;70.02
52591;BME280;38483;42.620;25.394;2024-01-11T02:55:07;97843.41;;;-3.19;70.34
52591;BME280;38483;42.620;25.394;2024-01-11T02:57:34;97822.03;;;-3.32;70.40
52591;BME280;38483;42.620;25.394;2024-01-11T03:00:01;97836.00;;;-3.11;71.05
52591;BME280;38483;42.620;25.394;2024-01-11T03:02:30;97827.56;;;-3.09;70.30
52591;BME280;38483;42.620;25.394;2024-01-11T03:04:57;97831.81;;;-3.09;70.51
52591;BME280;38483;42.620;25.394;2024-01-11T03:07:24;97820.16;;;-3.00;70.75
52591;BME280;38483;42.620;25.394;2024-01-11T03:09:51;97832.56;;;-2.70;70.42
52591;BME280;38483;42.620;25.394;2024-01-11T03:12:18;97830.25;;;-2.57;69.89
52591;BME280;38483;42.620;25.394;2024-01-11T03:14:45;97829.06;;;-2.77;69.88
52591;BME280;38483;42.620;25.394;2024-01-11T03:17:13;97830.16;;;-2.63;69.94
52591;BME280;38483;42.620;25.394;2024-01-11T03:19:40;97797.38;;;-2.98;70.12
52591;BME280;38483;42.620;25.394;2024-01-11T03:22:11;97835.22;;;-2.64;70.20
52591;BME280;38483;42.620;25.394;2024-01-11T03:24:38;97827.66;;;-2.61;69.68
52591;BME280;38483;42.620;25.394;2024-01-11T03:27:08;97830.06;;;-2.67;69.71
52591;BME280;38483;42.620;25.394;2024-01-11T03:29:35;97833.16;;;-2.83;70.10
52591;BME280;38483;42.620;25.394;2024-01-11T03:32:02;97830.75;;;-2.76;70.96
52591;BME280;38483;42.620;25.394;2024-01-11T03:34:29;97809.81;;;-3.10;70.52
52591;BME280;38483;42.620;25.394;2024-01-11T03:36:57;97815.91;;;-3.01;69.94
52591;BME280;38483;42.620;25.394;2024-01-11T03:39:25;97805.97;;;-3.34;71.71
52591;BME280;38483;42.620;25.394;2024-01-11T03:41:52;97813.13;;;-3.14;71.48
52591;BME280;38483;42.620;25.394;2024-01-11T03:44:19;97810.91;;;-3.40;72.32
52591;BME280;38483;42.620;25.394;2024-01-11T03:46:46;97812.00;;;-3.28;72.37
52591;BME280;38483;42.620;25.394;2024-01-11T03:49:13;97816.03;;;-3.38;72.79
52591;BME280;38483;42.620;25.394;2024-01-11T03:51:41;97819.16;;;-3.50;72.22
52591;BME280;38483;42.620;25.394;2024-01-11T03:54:08;97818.28;;;-3.50;71.46
52591;BME280;38483;42.620;25.394;2024-01-11T03:56:39;97817.38;;;-3.54;71.16
52591;BME280;38483;42.620;25.394;2024-01-11T03:59:06;97815.16;;;-3.40;72.15
52591;BME280;38483;42.620;25.394;2024-01-11T04:01:40;97802.50;;;-3.39;70.96
52591;BME280;38483;42.620;25.394;2024-01-11T04:04:07;97817.94;;;-3.26;71.33
52591;BME280;38483;42.620;25.394;2024-01-11T04:06:34;97816.84;;;-3.39;71.20
52591;BME280;38483;42.620;25.394;2024-01-11T04:09:01;97816.38;;;-3.21;70.14
52591;BME280;38483;42.620;25.394;2024-01-11T04:11:29;97815.16;;;-3.39;70.65
52591;BME280;38483;42.620;25.394;2024-01-11T04:13:56;97813.34;;;-3.44;71.06
52591;BME280;38483;42.620;25.394;2024-01-11T04:16:23;97792.81;;;-3.58;70.88
52591;BME280;38483;42.620;25.394;2024-01-11T04:18:50;97804.28;;;-3.35;70.36
52591;BME280;38483;42.620;25.394;2024-01-11T04:21:25;97802.53;;;-3.37;70.43
52591;BME280;38483;42.620;25.394;2024-01-11T04:23:55;97797.44;;;-3.39;70.00
52591;BME280;38483;42.620;25.394;2024-01-11T04:26:23;97789.31;;;-3.24;70.12
52591;BME280;38483;42.620;25.394;2024-01-11T04:28:51;97781.72;;;-3.22;69.30
52591;BME280;38483;42.620;25.394;2024-01-11T04:31:21;97792.66;;;-3.23;68.94
52591;BME280;38483;42.620;25.394;2024-01-11T04:33:48;97793.41;;;-3.29;69.87
52591;BME280;38483;42.620;25.394;2024-01-11T04:36:15;97794.59;;;-3.13;70.64
52591;BME280;38483;42.620;25.394;2024-01-11T04:38:43;97790.63;;;-2.99;69.89
52591;BME280;38483;42.620;25.394;2024-01-11T04:41:12;97793.41;;;-2.84;69.03
52591;BME280;38483;42.620;25.394;2024-01-11T04:43:41;97790.19;;;-2.77;69.25
52591;BME280;38483;42.620;25.394;2024-01-11T04:46:18;97785.22;;;-2.73;69.39
52591;BME280;38483;42.620;25.394;2024-01-11T04:48:46;97795.53;;;-2.62;69.07
52591;BME280;38483;42.620;25.394;2024-01-11T04:51:15;97798.09;;;-2.61;69.26
52591;BME280;38483;42.620;25.394;2024-01-11T04:53:44;97793.97;;;-2.54;68.85
52591;BME280;38483;42.620;25.394;2024-01-11T04:56:13;97789.59;;;-2.64;69.24
52591;BME280;38483;42.620;25.394;2024-01-11T04:58:42;97797.28;;;-2.58;68.45
52591;BME280;38483;42.620;25.394;2024-01-11T05:01:14;97781.06;;;-2.68;69.20
52591;BME280;38483;42.620;25.394;2024-01-11T05:03:43;97728.56;;;-3.22;69.13
52591;BME280;38483;42.620;25.394;2024-01-11T05:06:17;97787.31;;;-2.95;69.86
52591;BME280;38483;42.620;25.394;2024-01-11T05:08:46;97796.03;;;-2.80;70.04
52591;BME280;38483;42.620;25.394;2024-01-11T05:11:22;97787.53;;;-2.85;70.92
52591;BME280;38483;42.620;25.394;2024-01-11T05:13:51;97798.34;;;-2.92;70.24
52591;BME280;38483;42.620;25.394;2024-01-11T05:18:46;97791.75;;;-3.28;71.58
52591;BME280;38483;42.620;25.394;2024-01-11T05:21:13;97790.28;;;-3.58;72.11
52591;BME280;38483;42.620;25.394;2024-01-11T05:23:41;97789.16;;;-3.70;73.09
52591;BME280;38483;42.620;25.394;2024-01-11T05:26:13;97770.03;;;-3.58;73.79
52591;BME280;38483;42.620;25.394;2024-01-11T05:28:40;97790.75;;;-3.37;73.08
52591;BME280;38483;42.620;25.394;2024-01-11T05:31:09;97762.16;;;-3.31;72.25
52591;BME280;38483;42.620;25.394;2024-01-11T05:33:38;97785.06;;;-3.23;71.84
52591;BME280;38483;42.620;25.394;2024-01-11T05:36:06;97787.88;;;-3.11;72.37
52591;BME280;38483;42.620;25.394;2024-01-11T05:38:34;97780.19;;;-3.14;71.63
52591;BME280;38483;42.620;25.394;2024-01-11T05:41:01;97751.38;;;-3.21;71.82
52591;BME280;38483;42.620;25.394;2024-01-11T05:43:29;97783.03;;;-2.99;71.65
52591;BME280;38483;42.620;25.394;2024-01-11T05:45:56;97780.59;;;-2.93;71.45
52591;BME280;38483;42.620;25.394;2024-01-11T05:48:23;97758.03;;;-3.26;70.28
52591;BME280;38483;42.620;25.394;2024-01-11T05:50:51;97771.13;;;-3.47;71.42
52591;BME280;38483;42.620;25.394;2024-01-11T05:53:18;97762.88;;;-3.77;71.85
52591;BME280;38483;42.620;25.394;2024-01-11T05:55:48;97767.66;;;-3.50;72.51
52591;BME280;38483;42.620;25.394;2024-01-11T05:58:18;97732.19;;;-3.53;71.90
52591;BME280;38483;42.620;25.394;2024-01-11T06:00:45;97763.78;;;-3.33;72.07
52591;BME280;38483;42.620;25.394;2024-01-11T06:03:13;97770.78;;;-3.21;72.07
52591;BME280;38483;42.620;25.394;2024-01-11T06:05:40;97752.31;;;-3.17;71.83
52591;BME280;38483;42.620;25.394;2024-01-11T06:08:07;97752.53;;;-3.05;71.22
52591;BME280;38483;42.620;25.394;2024-01-11T06:10:34;97741.41;;;-3.13;69.75
52591;BME280;38483;42.620;25.394;2024-01-11T06:13:02;97755.53;;;-3.24;69.44
52591;BME280;38483;42.620;25.394;2024-01-11T06:15:29;97760.25;;;-3.43;70.98
52591;BME280;38483;42.620;25.394;2024-01-11T06:17:56;97732.41;;;-3.43;70.86
52591;BME280;38483;42.620;25.394;2024-01-11T06:20:23;97706.19;;;-3.45;70.54
52591;BME280;38483;42.620;25.394;2024-01-11T06:22:51;97741.91;;;-3.30;71.01
52591;BME280;38483;42.620;25.394;2024-01-11T06:25:18;97732.97;;;-3.12;70.86
52591;BME280;38483;42.620;25.394;2024-01-11T06:27:46;97739.81;;;-3.07;70.21
52591;BME280;38483;42.620;25.394;2024-01-11T06:30:14;97744.19;;;-2.98;70.86
52591;BME280;38483;42.620;25.394;2024-01-11T06:32:41;97727.44;;;-2.90;71.55
52591;BME280;38483;42.620;25.394;2024-01-11T06:35:09;97710.97;;;-3.15;72.33
52591;BME280;38483;42.620;25.394;2024-01-11T06:37:36;97741.84;;;-2.89;72.38
52591;BME280;38483;42.620;25.394;2024-01-11T06:40:04;97738.72;;;-2.75;72.35
52591;BME280;38483;42.620;25.394;2024-01-11T06:42:33;97731.03;;;-2.79;72.04
52591;BME280;38483;42.620;25.394;2024-01-11T06:45:01;97738.66;;;-2.78;72.61
52591;BME280;38483;42.620;25.394;2024-01-11T06:47:30;97736.88;;;-2.83;73.30
52591;BME280;38483;42.620;25.394;2024-01-11T06:49:59;97736.16;;;-2.76;72.87
52591;BME280;38483;42.620;25.394;2024-01-11T06:52:27;97716.31;;;-2.98;73.64
52591;BME280;38483;42.620;25.394;2024-01-11T06:54:53;97735.44;;;-2.68;72.73
52591;BME280;38483;42.620;25.394;2024-01-11T06:57:21;97724.50;;;-2.65;72.93
52591;BME280;38483;42.620;25.394;2024-01-11T06:59:48;97731.81;;;-2.31;72.38
52591;BME280;38483;42.620;25.394;2024-01-11T07:02:16;97712.06;;;-2.52;72.33
52591;BME280;38483;42.620;25.394;2024-01-11T07:04:44;97721.53;;;-2.41;72.42
52591;BME280;38483;42.620;25.394;2024-01-11T07:07:12;97712.66;;;-2.66;73.21
52591;BME280;38483;42.620;25.394;2024-01-11T07:09:39;97712.03;;;-2.53;72.67
52591;BME280;38483;42.620;25.394;2024-01-11T07:12:06;97731.59;;;-2.46;72.65
52591;BME280;38483;42.620;25.394;2024-01-11T07:14:36;97712.16;;;-2.45;73.14
52591;BME280;38483;42.620;25.394;2024-01-11T07:17:03;97730.97;;;-2.31;72.87
52591;BME280;38483;42.620;25.394;2024-01-11T07:19:31;97673.19;;;-2.52;72.31
52591;BME280;38483;42.620;25.394;2024-01-11T07:21:58;97730.34;;;-2.17;72.55
52591;BME280;38483;42.620;25.394;2024-01-11T07:24:26;97724.34;;;-2.20;72.99
52591;BME280;38483;42.620;25.394;2024-01-11T07:26:53;97728.63;;;-2.16;73.78
52591;BME280;38483;42.620;25.394;2024-01-11T07:29:21;97725.38;;;-2.08;73.79
52591;BME280;38483;42.620;25.394;2024-01-11T07:31:48;97728.22;;;-1.88;73.12
52591;BME280;38483;42.620;25.394;2024-01-11T07:34:15;97724.81;;;-1.90;73.52
52591;BME280;38483;42.620;25.394;2024-01-11T07:36:42;97726.56;;;-1.85;73.48
52591;BME280;38483;42.620;25.394;2024-01-11T07:39:09;97688.41;;;-1.92;73.35
52591;BME280;38483;42.620;25.394;2024-01-11T07:41:37;97714.81;;;-1.75;73.01
52591;BME280;38483;42.620;25.394;2024-01-11T07:44:07;97698.84;;;-1.70;73.79
52591;BME280;38483;42.620;25.394;2024-01-11T07:46:34;97716.16;;;-1.38;72.90
52591;BME280;38483;42.620;25.394;2024-01-11T07:49:12;97713.63;;;-1.35;72.74
52591;BME280;38483;42.620;25.394;2024-01-11T07:51:39;97705.19;;;-1.34;72.60
52591;BME280;38483;42.620;25.394;2024-01-11T07:54:08;97707.03;;;-1.20;72.62
52591;BME280;38483;42.620;25.394;2024-01-11T07:56:35;97705.38;;;-1.16;73.26
52591;BME280;38483;42.620;25.394;2024-01-11T07:59:03;97683.31;;;-1.22;73.45
52591;BME280;38483;42.620;25.394;2024-01-11T08:01:30;97690.25;;;-1.07;73.40
52591;BME280;38483;42.620;25.394;2024-01-11T08:03:57;97684.66;;;-0.67;73.55
52591;BME280;38483;42.620;25.394;2024-01-11T08:06:24;97686.47;;;-0.49;72.35
52591;BME280;38483;42.620;25.394;2024-01-11T08:08:52;97683.22;;;-0.32;71.88
52591;BME280;38483;42.620;25.394;2024-01-11T08:11:27;97654.22;;;-0.56;71.68
52591;BME280;38483;42.620;25.394;2024-01-11T08:14:01;97679.88;;;-0.28;71.66
52591;BME280;38483;42.620;25.394;2024-01-11T08:16:29;97675.75;;;-0.09;70.79
52591;BME280;38483;42.620;25.394;2024-01-11T08:18:57;97624.53;;;-0.59;71.26
52591;BME280;38483;42.620;25.394;2024-01-11T08:21:24;97663.00;;;-0.14;71.70
52591;BME280;38483;42.620;25.394;2024-01-11T08:23:51;97675.81;;;0.05;70.08
52591;BME280;38483;42.620;25.394;2024-01-11T08:26:27;97578.09;;;-0.29;68.38
52591;BME280;38483;42.620;25.394;2024-01-11T08:28:54;97674.31;;;0.52;68.49
52591;BME280;38483;42.620;25.394;2024-01-11T08:31:21;97651.34;;;0.41;67.75
52591;BME280;38483;42.620;25.394;2024-01-11T08:33:49;97665.88;;;0.72;66.10
52591;BME280;38483;42.620;25.394;2024-01-11T08:36:20;97655.69;;;0.66;65.97
52591;BME280;38483;42.620;25.394;2024-01-11T08:38:49;97657.41;;;0.81;66.46
52591;BME280;38483;42.620;25.394;2024-01-11T08:41:16;97655.72;;;0.89;67.02
52591;BME280;38483;42.620;25.394;2024-01-11T08:43:44;97635.34;;;0.95;66.09
52591;BME280;38483;42.620;25.394;2024-01-11T08:46:11;97632.81;;;1.10;65.94
52591;BME280;38483;42.620;25.394;2024-01-11T08:48:38;97635.38;;;1.12;66.44
52591;BME280;38483;42.620;25.394;2024-01-11T08:51:05;97641.34;;;1.27;65.59
52591;BME280;38483;42.620;25.394;2024-01-11T08:53:33;97641.31;;;1.29;65.42
52591;BME280;38483;42.620;25.394;2024-01-11T08:56:00;97640.47;;;1.33;65.02
52591;BME280;38483;42.620;25.394;2024-01-11T08:58:27;97626.84;;;1.61;64.81
52591;BME280;38483;42.620;25.394;2024-01-11T09:00:54;97626.84;;;1.69;64.83
52591;BME280;38483;42.620;25.394;2024-01-11T09:03:22;97605.59;;;1.60;63.86
52591;BME280;38483;42.620;25.394;2024-01-11T09:05:50;97597.00;;;1.80;63.31
52591;BME280;38483;42.620;25.394;2024-01-11T09:08:18;97604.66;;;1.89;63.97
52591;BME280;38483;42.620;25.394;2024-01-11T09:10:45;97601.22;;;1.97;62.92
52591;BME280;38483;42.620;25.394;2024-01-11T09:13:13;97592.69;;;2.03;62.10
52591;BME280;38483;42.620;25.394;2024-01-11T09:15:42;97595.19;;;2.15;61.89
52591;BME280;38483;42.620;25.394;2024-01-11T09:18:09;97574.78;;;2.12;60.43
52591;BME280;38483;42.620;25.394;2024-01-11T09:20:37;97528.88;;;1.97;59.38
52591;BME280;38483;42.620;25.394;2024-01-11T09:23:04;97562.72;;;2.38;58.48
52591;BME280;38483;42.620;25.394;2024-01-11T09:25:31;97562.66;;;2.53;58.22
52591;BME280;38483;42.620;25.394;2024-01-11T09:27:59;97563.34;;;2.78;57.20
52591;BME280;38483;42.620;25.394;2024-01-11T09:30:26;97508.19;;;2.45;56.62
52591;BME280;38483;42.620;25.394;2024-01-11T09:32:53;97559.03;;;2.81;55.93
52591;BME280;38483;42.620;25.394;2024-01-11T09:35:24;97522.47;;;2.72;55.52
52591;BME280;38483;42.620;25.394;2024-01-11T09:37:51;97553.78;;;3.01;55.68
52591;BME280;38483;42.620;25.394;2024-01-11T09:40:19;97531.47;;;3.13;54.54
52591;BME280;38483;42.620;25.394;2024-01-11T09:42:47;97542.56;;;3.17;53.81
52591;BME280;38483;42.620;25.394;2024-01-11T09:45:16;97543.34;;;3.22;52.06
52591;BME280;38483;42.620;25.394;2024-01-11T09:47:44;97511.66;;;3.37;51.08
52591;BME280;38483;42.620;25.394;2024-01-11T09:50:16;97532.09;;;3.40;49.90
52591;BME280;38483;42.620;25.394;2024-01-11T09:52:48;97531.38;;;3.27;50.54
52591;BME280;38483;42.620;25.394;2024-01-11T09:55:17;97470.06;;;3.16;49.81
52591;BME280;38483;42.620;25.394;2024-01-11T09:57:48;97481.97;;;3.17;47.97
52591;BME280;38483;42.620;25.394;2024-01-11T10:00:19;97506.56;;;3.32;47.45
52591;BME280;38483;42.620;25.394;2024-01-11T10:02:49;97503.97;;;3.40;48.69
52591;BME280;38483;42.620;25.394;2024-01-11T10:05:18;97510.94;;;3.19;51.66
52591;BME280;38483;42.620;25.394;2024-01-11T10:07:46;97494.53;;;3.40;48.50
52591;BME280;38483;42.620;25.394;2024-01-11T10:10:13;97497.81;;;3.53;49.19
52591;BME280;38483;42.620;25.394;2024-01-11T10:12:44;97487.38;;;3.69;49.42
52591;BME280;38483;42.620;25.394;2024-01-11T10:15:12;97453.13;;;3.81;49.77
52591;BME280;38483;42.620;25.394;2024-01-11T10:17:42;97477.00;;;3.81;49.69
52591;BME280;38483;42.620;25.394;2024-01-11T10:20:15;97443.91;;;3.65;48.76
52591;BME280;38483;42.620;25.394;2024-01-11T10:22:45;97451.53;;;3.71;47.06
52591;BME280;38483;42.620;25.394;2024-01-11T10:25:14;97397.25;;;3.43;46.42
52591;BME280;38483;42.620;25.394;2024-01-11T10:27:44;97454.59;;;3.97;46.43
52591;BME280;38483;42.620;25.394;2024-01-11T10:30:17;97460.28;;;4.17;44.88
52591;BME280;38483;42.620;25.394;2024-01-11T10:32:46;97461.00;;;4.27;43.26
52591;BME280;38483;42.620;25.394;2024-01-11T10:35:13;97450.59;;;4.39;42.84
52591;BME280;38483;42.620;25.394;2024-01-11T10:37:43;97444.44;;;4.47;41.85
52591;BME280;38483;42.620;25.394;2024-01-11T10:40:11;97446.84;;;4.59;42.24
52591;BME280;38483;42.620;25.394;2024-01-11T10:42:45;97414.44;;;4.54;41.70
52591;BME280;38483;42.620;25.394;2024-01-11T10:45:16;97419.97;;;4.81;41.84
52591;BME280;38483;42.620;25.394;2024-01-11T10:47:50;97357.09;;;4.59;41.90
52591;BME280;38483;42.620;25.394;2024-01-11T10:50:19;97410.81;;;4.67;42.56
52591;BME280;38483;42.620;25.394;2024-01-11T10:52:56;97402.72;;;4.89;41.57
52591;BME280;38483;42.620;25.394;2024-01-11T10:55:32;97403.09;;;5.16;41.30
52591;BME280;38483;42.620;25.394;2024-01-11T10:58:01;97393.91;;;5.04;41.17
52591;BME280;38483;42.620;25.394;2024-01-11T11:00:29;97386.88;;;5.14;39.76
52591;BME280;38483;42.620;25.394;2024-01-11T11:02:59;97381.59;;;5.21;39.41
52591;BME280;38483;42.620;25.394;2024-01-11T11:05:30;97379.41;;;5.46;39.55
52591;BME280;38483;42.620;25.394;2024-01-11T11:08:00;97375.19;;;5.42;39.44
52591;BME280;38483;42.620;25.394;2024-01-11T11:10:30;97354.53;;;5.48;38.13
52591;BME280;38483;42.620;25.394;2024-01-11T11:12:59;97350.72;;;5.65;38.11
52591;BME280;38483;42.620;25.394;2024-01-11T11:15:27;97310.91;;;5.45;38.54
52591;BME280;38483;42.620;25.394;2024-01-11T11:17:56;97340.50;;;5.23;38.90
52591;BME280;38483;42.620;25.394;2024-01-11T11:20:25;97347.19;;;5.30;38.78
52591;BME280;38483;42.620;25.394;2024-01-11T11:23:05;97330.94;;;5.29;38.95
52591;BME280;38483;42.620;25.394;2024-01-11T11:25:34;97346.81;;;5.48;39.16
52591;BME280;38483;42.620;25.394;2024-01-11T11:28:02;97333.81;;;5.55;39.30
52591;BME280;38483;42.620;25.394;2024-01-11T11:30:42;97340.06;;;5.44;38.15
52591;BME280;38483;42.620;25.394;2024-01-11T11:33:16;97320.28;;;5.47;37.80
52591;BME280;38483;42.620;25.394;2024-01-11T11:35:46;97332.34;;;5.44;37.49
52591;BME280;38483;42.620;25.394;2024-01-11T11:38:27;97315.16;;;5.47;37.95
52591;BME280;38483;42.620;25.394;2024-01-11T11:40:58;97322.22;;;5.76;38.78
52591;BME280;38483;42.620;25.394;2024-01-11T11:43:29;97319.69;;;5.73;38.66
52591;BME280;38483;42.620;25.394;2024-01-11T11:45:58;97287.16;;;5.73;38.53
52591;BME280;38483;42.620;25.394;2024-01-11T11:51:08;97309.13;;;5.88;39.57
52591;BME280;38483;42.620;25.394;2024-01-11T11:53:38;97303.03;;;5.92;39.28
52591;BME280;38483;42.620;25.394;2024-01-11T11:56:08;97296.13;;;5.94;38.29
52591;BME280;38483;42.620;25.394;2024-01-11T11:58:37;97295.13;;;6.01;39.03
52591;BME280;38483;42.620;25.394;2024-01-11T12:01:06;97288.09;;;6.08;38.47
52591;BME280;38483;42.620;25.394;2024-01-11T12:03:40;97279.59;;;6.06;37.99
52591;BME280;38483;42.620;25.394;2024-01-11T12:06:09;97276.22;;;6.02;38.46
52591;BME280;38483;42.620;25.394;2024-01-11T12:08:41;97281.88;;;6.16;38.66
52591;BME280;38483;42.620;25.394;2024-01-11T12:11:09;97265.25;;;5.96;37.59
52591;BME280;38483;42.620;25.394;2024-01-11T12:13:37;97265.78;;;6.08;38.45
52591;BME280;38483;42.620;25.394;2024-01-11T12:16:04;97270.81;;;6.13;36.85
52591;BME280;38483;42.620;25.394;2024-01-11T12:18:32;97257.72;;;5.88;37.31
52591;BME280;38483;42.620;25.394;2024-01-11T12:20:59;97260.25;;;5.90;36.62
52591;BME280;38483;42.620;25.394;2024-01-11T12:23:27;97243.00;;;5.95;36.63
52591;BME280;38483;42.620;25.394;2024-01-11T12:25:58;97254.75;;;6.05;36.85
52591;BME280;38483;42.620;25.394;2024-01-11T12:28:28;97243.66;;;6.03;36.35
52591;BME280;38483;42.620;25.394;2024-01-11T12:30:56;97248.00;;;6.01;36.46
52591;BME280;38483;42.620;25.394;2024-01-11T12:33:25;97241.44;;;5.89;36.72
52591;BME280;38483;42.620;25.394;2024-01-11T12:35:53;97227.69;;;5.90;36.73
52591;BME280;38483;42.620;25.394;2024-01-11T12:38:20;97228.78;;;5.80;37.76
52591;BME280;38483;42.620;25.394;2024-01-11T12:40:48;97219.19;;;5.88;36.97
52591;BME280;38483;42.620;25.394;2024-01-11T12:43:15;97221.50;;;5.62;38.68
52591;BME280;38483;42.620;25.394;2024-01-11T12:45:43;97223.84;;;5.71;37.83
52591;BME280;38483;42.620;25.394;2024-01-11T12:48:10;97210.03;;;5.75;38.33
52591;BME280;38483;42.620;25.394;2024-01-11T12:50:41;97202.25;;;5.78;38.02
52591;BME280;38483;42.620;25.394;2024-01-11T12:53:13;97211.31;;;5.94;38.35
52591;BME280;38483;42.620;25.394;2024-01-11T12:55:49;97208.59;;;6.00;38.29
52591;BME280;38483;42.620;25.394;2024-01-11T12:58:28;97201.94;;;5.93;38.52
52591;BME280;38483;42.620;25.394;2024-01-11T13:00:55;97191.03;;;5.82;39.16
52591;BME280;38483;42.620;25.394;2024-01-11T13:03:25;97200.38;;;5.86;38.92